createdAt,value
2018-12-27T00:00:30.243Z,97.10
2018-12-27T00:02:58.522Z,97.10
2018-12-27T00:05:26.919Z,97.20
2018-12-27T00:07:55.253Z,97.30
2018-12-27T00:10:23.596Z,97.30
2018-12-27T00:12:51.892Z,97.20
2018-12-27T00:15:20.315Z,97.20
2018-12-27T00:17:48.655Z,97.40
2018-12-27T00:20:16.956Z,97.30
2018-12-27T00:22:45.231Z,97.30
2018-12-27T00:25:13.505Z,97.10
2018-12-27T00:27:41.835Z,97.00
2018-12-27T00:30:10.448Z,97.10
2018-12-27T00:32:39.411Z,97.10
2018-12-27T00:35:09.918Z,97.00
2018-12-27T00:37:38.533Z,97.10
2018-12-27T00:40:07.141Z,97.30
2018-12-27T00:42:35.789Z,96.90
2018-12-27T00:45:04.402Z,96.70
2018-12-27T00:47:33.013Z,96.80
2018-12-27T00:50:01.659Z,96.90
2018-12-27T00:52:30.675Z,96.90
2018-12-27T00:54:59.322Z,96.90
2018-12-27T00:57:27.957Z,96.70
2018-12-27T00:59:56.647Z,96.80
2018-12-27T01:02:25.263Z,96.80
2018-12-27T01:04:54.731Z,96.70
2018-12-27T01:07:26.292Z,96.70
2018-12-27T01:09:54.975Z,96.60
2018-12-27T01:12:23.607Z,96.60
2018-12-27T01:14:52.215Z,96.60
2018-12-27T01:17:20.819Z,96.60
2018-12-27T01:19:49.468Z,96.60
2018-12-27T01:22:18.153Z,96.50
2018-12-27T01:24:46.759Z,96.40
2018-12-27T01:27:15.402Z,96.30
2018-12-27T01:29:44.011Z,96.30
2018-12-27T01:32:12.619Z,96.00
2018-12-27T01:34:41.320Z,96.00
2018-12-27T01:37:09.928Z,96.10
2018-12-27T01:39:38.641Z,96.10
2018-12-27T01:42:07.323Z,96.00
2018-12-27T01:44:36.008Z,95.80
2018-12-27T01:47:04.698Z,95.70
2018-12-27T01:49:33.422Z,95.60
2018-12-27T01:52:02.104Z,95.50
2018-12-27T01:54:30.712Z,95.40
2018-12-27T01:56:59.361Z,95.40
2018-12-27T01:59:28.050Z,95.40
2018-12-27T02:01:56.726Z,95.30
2018-12-27T02:04:25.447Z,95.30
2018-12-27T02:06:54.128Z,95.30
2018-12-27T02:09:22.740Z,95.20
2018-12-27T02:11:51.370Z,95.00
2018-12-27T02:14:19.983Z,95.00
2018-12-27T02:16:48.598Z,95.10
2018-12-27T02:19:17.262Z,95.10
2018-12-27T02:21:45.877Z,95.00
2018-12-27T02:24:14.485Z,95.00
2018-12-27T02:26:43.187Z,95.00
2018-12-27T02:29:11.796Z,95.10
2018-12-27T02:31:40.472Z,95.00
2018-12-27T02:34:10.520Z,94.90
2018-12-27T02:36:39.131Z,94.90
2018-12-27T02:39:07.881Z,95.20
2018-12-27T02:41:36.523Z,95.50
2018-12-27T02:44:05.207Z,95.40
2018-12-27T02:46:33.815Z,95.40
2018-12-27T02:49:02.464Z,95.00
2018-12-27T02:51:31.071Z,94.90
2018-12-27T02:53:59.683Z,95.40
2018-12-27T02:56:28.798Z,95.80
2018-12-27T02:58:57.504Z,95.90
2018-12-27T03:01:26.224Z,95.90
2018-12-27T03:03:54.953Z,96.00
2018-12-27T03:06:23.628Z,95.90
2018-12-27T03:08:52.284Z,95.80
2018-12-27T03:11:20.931Z,95.20
2018-12-27T03:13:49.544Z,95.20
2018-12-27T03:16:18.159Z,95.10
2018-12-27T03:18:46.867Z,95.30
2018-12-27T03:21:15.488Z,95.30
2018-12-27T03:23:44.168Z,95.20
2018-12-27T03:26:12.803Z,95.10
2018-12-27T03:28:41.415Z,95.10
2018-12-27T03:31:10.029Z,94.90
2018-12-27T03:33:41.432Z,94.80
2018-12-27T03:36:10.121Z,94.60
2018-12-27T03:38:38.735Z,94.50
2018-12-27T03:41:07.374Z,94.60
2018-12-27T03:43:36.056Z,94.70
2018-12-27T03:46:04.744Z,94.90
2018-12-27T03:48:33.937Z,94.80
2018-12-27T03:51:02.667Z,94.80
2018-12-27T03:53:31.343Z,94.80
2018-12-27T03:55:59.987Z,94.70
2018-12-27T03:58:28.672Z,94.70
2018-12-27T04:00:57.282Z,94.80
2018-12-27T04:03:25.922Z,94.80
2018-12-27T04:05:55.532Z,94.60
2018-12-27T04:08:24.190Z,94.50
2018-12-27T04:10:53.296Z,94.70
2018-12-27T04:13:21.917Z,94.90
2018-12-27T04:15:50.260Z,95.00
2018-12-27T04:18:18.561Z,95.00
2018-12-27T04:20:46.828Z,95.10
2018-12-27T04:23:15.233Z,95.30
2018-12-27T04:25:43.605Z,95.20
2018-12-27T04:28:11.952Z,95.10
2018-12-27T04:30:40.223Z,95.00
2018-12-27T04:33:11.779Z,95.00
2018-12-27T04:35:40.058Z,95.00
2018-12-27T04:38:08.407Z,94.80
2018-12-27T04:40:36.712Z,95.10
2018-12-27T04:43:04.987Z,95.10
2018-12-27T04:45:33.351Z,95.60
2018-12-27T04:48:01.721Z,95.50
2018-12-27T04:50:29.991Z,95.70
2018-12-27T04:52:58.271Z,95.60
2018-12-27T04:55:26.651Z,95.60
2018-12-27T04:57:54.920Z,95.60
2018-12-27T05:00:23.195Z,95.40
2018-12-27T05:02:51.499Z,95.00
2018-12-27T05:05:20.089Z,95.00
2018-12-27T05:07:48.361Z,95.20
2018-12-27T05:10:16.736Z,95.40
2018-12-27T05:12:45.024Z,95.10
2018-12-27T05:15:13.300Z,95.30
2018-12-27T05:17:41.737Z,95.10
2018-12-27T05:20:10.009Z,95.40
2018-12-27T05:22:38.294Z,95.70
2018-12-27T05:25:06.665Z,95.60
2018-12-27T05:27:34.945Z,95.40
2018-12-27T05:30:03.285Z,95.20
2018-12-27T05:32:31.585Z,95.30
2018-12-27T05:34:59.858Z,95.50
2018-12-27T05:37:28.202Z,95.20
2018-12-27T05:39:56.584Z,95.40
2018-12-27T05:42:24.856Z,95.50
2018-12-27T05:44:53.305Z,95.60
2018-12-27T05:47:21.671Z,95.90
2018-12-27T05:49:49.949Z,95.80
2018-12-27T05:52:18.219Z,95.70
2018-12-27T05:54:46.837Z,95.50
2018-12-27T05:57:15.164Z,95.50
2018-12-27T05:59:43.432Z,95.30
2018-12-27T06:02:11.735Z,95.30
2018-12-27T06:04:40.014Z,95.30
2018-12-27T06:07:08.289Z,95.40
2018-12-27T06:09:36.587Z,95.20
2018-12-27T06:12:04.864Z,95.20
2018-12-27T06:14:33.145Z,95.50
2018-12-27T06:17:01.511Z,95.60
2018-12-27T06:19:29.779Z,95.90
2018-12-27T06:21:58.060Z,95.60
2018-12-27T06:24:27.352Z,95.40
2018-12-27T06:26:55.632Z,95.50
2018-12-27T06:29:23.910Z,95.50
2018-12-27T06:31:52.287Z,95.30
2018-12-27T06:34:20.625Z,95.20
2018-12-27T06:36:48.896Z,95.30
2018-12-27T06:39:17.196Z,95.40
2018-12-27T06:41:45.469Z,95.50
2018-12-27T06:44:13.844Z,95.50
2018-12-27T06:46:42.204Z,95.50
2018-12-27T06:49:10.555Z,95.30
2018-12-27T06:51:38.851Z,95.30
2018-12-27T06:54:07.170Z,95.10
2018-12-27T06:56:35.499Z,95.10
2018-12-27T06:59:03.775Z,95.20
2018-12-27T07:01:32.076Z,95.10
2018-12-27T07:04:00.358Z,94.80
2018-12-27T07:06:28.767Z,94.90
2018-12-27T07:08:57.591Z,94.90
2018-12-27T07:11:25.943Z,95.10
2018-12-27T07:13:54.303Z,95.10
2018-12-27T07:16:22.672Z,95.00
2018-12-27T07:18:50.943Z,95.10
2018-12-27T07:21:19.219Z,95.00
2018-12-27T07:23:47.521Z,95.10
2018-12-27T07:26:15.787Z,95.10
2018-12-27T07:28:44.059Z,95.20
2018-12-27T07:31:12.357Z,95.00
2018-12-27T07:33:40.664Z,95.10
2018-12-27T07:36:09.022Z,95.30
2018-12-27T07:38:38.104Z,95.30
2018-12-27T07:41:07.319Z,95.30
2018-12-27T07:43:35.663Z,95.40
2018-12-27T07:46:10.856Z,95.50
2018-12-27T07:48:34.880Z,95.40
2018-12-27T07:51:03.157Z,95.50
2018-12-27T07:53:31.992Z,95.50
2018-12-27T07:56:00.264Z,95.60
2018-12-27T07:58:28.539Z,95.60
2018-12-27T08:00:56.906Z,95.80
2018-12-27T08:03:25.229Z,95.90
2018-12-27T08:05:53.527Z,95.90
2018-12-27T08:08:21.835Z,95.90
2018-12-27T08:10:50.112Z,95.90
2018-12-27T08:13:18.384Z,95.90
2018-12-27T08:15:46.769Z,96.20
2018-12-27T08:18:15.040Z,96.40
2018-12-27T08:20:43.379Z,96.50
2018-12-27T08:23:11.757Z,96.50
2018-12-27T08:25:40.103Z,96.30
2018-12-27T08:28:08.384Z,96.20
2018-12-27T08:30:36.749Z,96.10
2018-12-27T08:33:05.020Z,96.10
2018-12-27T08:35:33.360Z,96.00
2018-12-27T08:38:01.656Z,95.90
2018-12-27T08:40:30.003Z,96.00
2018-12-27T08:42:58.283Z,96.40
2018-12-27T08:45:26.589Z,96.60
2018-12-27T08:47:54.975Z,97.00
2018-12-27T08:50:23.248Z,96.70
2018-12-27T08:52:51.584Z,96.70
2018-12-27T08:55:19.851Z,96.70
2018-12-27T08:57:48.119Z,96.70
2018-12-27T09:00:16.415Z,96.70
2018-12-27T09:02:44.688Z,96.70
2018-12-27T09:05:18.849Z,96.80
2018-12-27T09:07:43.256Z,96.80
2018-12-27T09:10:11.624Z,96.80
2018-12-27T09:12:39.896Z,96.70
2018-12-27T09:15:08.199Z,96.80
2018-12-27T09:17:36.731Z,96.80
2018-12-27T09:20:07.869Z,96.80
2018-12-27T09:22:36.267Z,96.80
2018-12-27T09:25:05.235Z,96.80
2018-12-27T09:27:33.513Z,96.70
2018-12-27T09:30:01.835Z,96.70
2018-12-27T09:32:30.177Z,96.70
2018-12-27T09:34:58.450Z,96.60
2018-12-27T09:37:26.766Z,96.50
2018-12-27T09:39:55.108Z,96.40
2018-12-27T09:42:23.380Z,96.20
2018-12-27T09:44:52.882Z,96.20
2018-12-27T09:47:21.152Z,96.20
2018-12-27T09:49:49.425Z,96.30
2018-12-27T09:52:17.794Z,96.70
2018-12-27T09:54:46.157Z,96.60
2018-12-27T09:57:14.440Z,96.70
2018-12-27T09:59:42.807Z,97.10
2018-12-27T10:02:11.153Z,97.20
2018-12-27T10:04:39.571Z,97.10
2018-12-27T10:07:07.871Z,97.10
2018-12-27T10:09:36.235Z,97.00
2018-12-27T10:12:04.507Z,97.60
2018-12-27T10:14:33.159Z,97.30
2018-12-27T10:17:01.432Z,97.20
2018-12-27T10:19:29.708Z,97.90
2018-12-27T10:21:58.003Z,97.70
2018-12-27T10:24:26.278Z,97.40
2018-12-27T10:26:54.640Z,97.30
2018-12-27T10:29:22.941Z,97.30
2018-12-27T10:31:51.226Z,97.20
2018-12-27T10:34:19.496Z,97.30
2018-12-27T10:36:47.791Z,97.40
2018-12-27T10:39:16.068Z,97.10
2018-12-27T10:41:44.422Z,97.20
2018-12-27T10:44:12.747Z,97.20
2018-12-27T10:46:41.080Z,97.40
2018-12-27T10:49:09.352Z,97.40
2018-12-27T10:51:37.647Z,97.40
2018-12-27T10:54:05.933Z,97.40
2018-12-27T10:56:34.275Z,97.40
2018-12-27T10:59:02.584Z,97.50
2018-12-27T11:01:30.856Z,97.60
2018-12-27T11:03:59.203Z,97.50
2018-12-27T11:06:27.507Z,97.80
2018-12-27T11:08:55.776Z,97.80
2018-12-27T11:11:24.043Z,97.70
2018-12-27T11:13:52.348Z,97.70
2018-12-27T11:16:20.624Z,97.70
2018-12-27T11:18:48.900Z,97.60
2018-12-27T11:21:17.280Z,97.30
2018-12-27T11:23:45.552Z,97.20
2018-12-27T11:26:13.937Z,97.10
2018-12-27T11:28:42.284Z,96.80
2018-12-27T11:31:10.560Z,96.80
2018-12-27T11:33:40.220Z,97.00
2018-12-27T11:36:08.589Z,96.30
2018-12-27T11:38:36.931Z,96.00
2018-12-27T11:41:05.222Z,96.80
2018-12-27T11:43:33.596Z,95.60
2018-12-27T11:46:01.874Z,95.10
2018-12-27T11:48:30.219Z,95.60
2018-12-27T11:50:58.532Z,95.20
2018-12-27T11:53:26.882Z,95.20
2018-12-27T11:55:55.155Z,94.60
2018-12-27T11:58:23.443Z,94.40
2018-12-27T12:00:51.720Z,94.40
2018-12-27T12:03:19.988Z,94.00
2018-12-27T12:05:48.294Z,94.20
2018-12-27T12:08:17.974Z,94.00
2018-12-27T12:10:46.442Z,94.00
2018-12-27T12:13:14.807Z,94.30
2018-12-27T12:15:43.079Z,94.20
2018-12-27T12:18:11.492Z,93.90
2018-12-27T12:20:39.794Z,93.70
2018-12-27T12:23:08.140Z,93.70
2018-12-27T12:25:36.408Z,93.60
2018-12-27T12:28:05.776Z,93.50
2018-12-27T12:30:34.051Z,93.80
2018-12-27T12:33:02.432Z,93.30
2018-12-27T12:35:30.777Z,93.20
2018-12-27T12:37:59.130Z,93.60
2018-12-27T12:40:27.476Z,93.30
2018-12-27T12:42:55.787Z,93.50
2018-12-27T12:45:24.060Z,92.90
2018-12-27T12:47:52.331Z,93.30
2018-12-27T12:50:20.712Z,93.40
2018-12-27T12:52:48.987Z,92.50
2018-12-27T12:55:17.274Z,92.50
2018-12-27T12:57:45.646Z,92.60
2018-12-27T13:00:13.916Z,93.10
2018-12-27T13:02:42.200Z,92.80
2018-12-27T13:05:10.705Z,92.70
2018-12-27T13:07:38.989Z,92.40
2018-12-27T13:10:07.331Z,92.50
2018-12-27T13:12:35.636Z,92.50
2018-12-27T13:15:04.076Z,92.20
2018-12-27T13:17:32.440Z,92.20
2018-12-27T13:20:00.815Z,92.30
2018-12-27T13:22:29.091Z,92.40
2018-12-27T13:24:57.367Z,92.50
2018-12-27T13:27:25.655Z,92.60
2018-12-27T13:29:53.947Z,92.80
2018-12-27T13:32:22.290Z,92.60
2018-12-27T13:34:50.605Z,92.60
2018-12-27T13:37:18.952Z,92.50
2018-12-27T13:39:47.232Z,92.50
2018-12-27T13:42:15.531Z,92.40
2018-12-27T13:44:43.807Z,92.90
2018-12-27T13:47:12.152Z,92.80
2018-12-27T13:49:40.543Z,92.70
2018-12-27T13:52:08.891Z,92.70
2018-12-27T13:54:38.080Z,92.60
2018-12-27T13:57:06.380Z,92.60
2018-12-27T13:59:34.675Z,92.30
2018-12-27T14:02:02.951Z,92.10
2018-12-27T14:04:31.253Z,92.20
2018-12-27T14:06:59.603Z,91.80
2018-12-27T14:09:27.875Z,92.20
2018-12-27T14:11:56.171Z,92.20
2018-12-27T14:14:24.448Z,91.80
2018-12-27T14:16:52.731Z,91.50
2018-12-27T14:19:21.029Z,91.70
2018-12-27T14:21:49.305Z,91.80
2018-12-27T14:24:17.579Z,92.50
2018-12-27T14:26:45.880Z,92.30
2018-12-27T14:29:14.153Z,92.50
2018-12-27T14:31:42.423Z,92.30
2018-12-27T14:34:10.728Z,93.30
2018-12-27T14:36:39.852Z,92.90
2018-12-27T14:39:08.450Z,92.60
2018-12-27T14:41:36.823Z,92.40
2018-12-27T14:44:05.097Z,92.50
2018-12-27T14:46:33.445Z,92.40
2018-12-27T14:49:01.807Z,92.00
2018-12-27T14:51:30.093Z,91.90
2018-12-27T14:53:58.432Z,91.90
2018-12-27T14:56:26.738Z,92.00
2018-12-27T14:58:55.080Z,92.50
2018-12-27T15:01:23.338Z,92.40
2018-12-27T15:03:51.632Z,92.60
2018-12-27T15:06:19.983Z,92.40
2018-12-27T15:08:48.257Z,92.70
2018-12-27T15:11:16.552Z,92.60
2018-12-27T15:13:44.887Z,92.80
2018-12-27T15:16:13.160Z,93.10
2018-12-27T15:18:41.457Z,93.40
2018-12-27T15:21:09.733Z,93.10
2018-12-27T15:23:38.063Z,93.50
2018-12-27T15:26:06.360Z,93.60
2018-12-27T15:28:34.629Z,93.80
2018-12-27T15:31:02.898Z,94.20
2018-12-27T15:33:31.180Z,94.40
2018-12-27T15:35:59.451Z,94.70
2018-12-27T15:38:27.716Z,94.80
2018-12-27T15:40:56.016Z,94.80
2018-12-27T15:43:24.299Z,94.90
2018-12-27T15:45:52.582Z,95.00
2018-12-27T15:48:20.942Z,95.10
2018-12-27T15:50:49.299Z,95.10
2018-12-27T15:53:17.563Z,95.20
2018-12-27T15:55:45.873Z,95.30
2018-12-27T15:58:14.215Z,95.30
2018-12-27T16:00:42.487Z,95.30
2018-12-27T16:03:10.791Z,95.30
2018-12-27T16:05:39.060Z,95.20
2018-12-27T16:08:07.333Z,95.30
2018-12-27T16:10:35.629Z,95.30
2018-12-27T16:13:03.895Z,95.40
2018-12-27T16:15:32.166Z,95.40
2018-12-27T16:18:00.498Z,95.40
2018-12-27T16:20:28.833Z,95.30
2018-12-27T16:22:57.195Z,95.40
2018-12-27T16:25:25.510Z,95.40
2018-12-27T16:27:53.852Z,95.40
2018-12-27T16:30:22.148Z,95.30
2018-12-27T16:32:50.441Z,95.20
2018-12-27T16:35:18.711Z,95.20
2018-12-27T16:37:46.985Z,95.10
2018-12-27T16:40:15.423Z,95.40
2018-12-27T16:42:43.702Z,95.20
2018-12-27T16:45:12.048Z,95.30
2018-12-27T16:47:40.911Z,95.20
2018-12-27T16:50:09.751Z,95.30
2018-12-27T16:52:38.028Z,95.30
2018-12-27T16:55:06.342Z,95.10
2018-12-27T16:57:34.618Z,95.20
2018-12-27T17:00:03.632Z,95.30
2018-12-27T17:02:32.216Z,95.30
2018-12-27T17:05:00.488Z,95.30
2018-12-27T17:07:28.755Z,95.30
2018-12-27T17:09:57.064Z,95.40
2018-12-27T17:12:25.331Z,95.20
2018-12-27T17:14:53.608Z,95.20
2018-12-27T17:17:21.911Z,95.00
2018-12-27T17:19:50.183Z,95.10
2018-12-27T17:22:18.447Z,95.00
2018-12-27T17:24:46.750Z,95.00
2018-12-27T17:27:15.103Z,95.20
2018-12-27T17:29:43.378Z,95.20
2018-12-27T17:32:12.168Z,94.90
2018-12-27T17:34:40.512Z,94.70
2018-12-27T17:37:08.784Z,94.90
2018-12-27T17:39:37.960Z,94.60
2018-12-27T17:42:06.571Z,94.60
2018-12-27T17:44:34.928Z,94.60
2018-12-27T17:47:03.238Z,94.10
2018-12-27T17:49:31.509Z,94.10
2018-12-27T17:51:59.784Z,93.70
2018-12-27T17:54:28.096Z,93.70
2018-12-27T17:56:56.368Z,93.60
2018-12-27T17:59:26.943Z,93.80
2018-12-27T18:01:55.228Z,94.20
2018-12-27T18:04:23.494Z,93.90
2018-12-27T18:06:51.767Z,93.50
2018-12-27T18:09:20.068Z,93.40
2018-12-27T18:11:48.341Z,93.60
2018-12-27T18:14:16.607Z,93.60
2018-12-27T18:16:44.992Z,93.50
2018-12-27T18:19:13.339Z,93.10
2018-12-27T18:21:41.683Z,92.80
2018-12-27T18:24:10.231Z,92.90
2018-12-27T18:26:38.568Z,93.00
2018-12-27T18:29:06.837Z,93.10
2018-12-27T18:31:35.142Z,93.10
2018-12-27T18:34:03.412Z,92.90
2018-12-27T18:36:31.684Z,93.00
2018-12-27T18:38:59.996Z,92.70
2018-12-27T18:41:28.272Z,92.50
2018-12-27T18:43:56.612Z,92.40
2018-12-27T18:46:24.911Z,92.50
2018-12-27T18:48:53.182Z,92.00
2018-12-27T18:51:21.452Z,91.40
2018-12-27T18:53:49.757Z,91.50
2018-12-27T18:56:18.035Z,92.10
2018-12-27T18:58:46.376Z,92.50
2018-12-27T19:01:14.755Z,92.90
2018-12-27T19:03:43.101Z,92.10
2018-12-27T19:06:11.388Z,92.70
2018-12-27T19:08:39.782Z,91.60
2018-12-27T19:11:44.524Z,91.00
2018-12-27T19:14:12.816Z,91.10
2018-12-27T19:16:41.084Z,90.60
2018-12-27T19:19:09.435Z,90.50
2018-12-27T19:21:41.006Z,91.20
2018-12-27T19:24:09.488Z,91.70
2018-12-27T19:26:37.827Z,91.90
2018-12-27T19:29:06.621Z,92.10
2018-12-27T19:31:34.897Z,92.20
2018-12-27T19:34:03.217Z,92.40
2018-12-27T19:36:31.583Z,92.60
2018-12-27T19:39:01.699Z,92.80
2018-12-27T19:41:29.971Z,93.00
2018-12-27T19:43:58.267Z,93.20
2018-12-27T19:46:26.559Z,93.20
2018-12-27T19:48:54.848Z,93.30
2018-12-27T19:51:23.155Z,93.30
2018-12-27T19:53:51.513Z,93.50
2018-12-27T19:56:19.878Z,93.50
2018-12-27T19:58:48.245Z,93.60
2018-12-27T20:01:16.512Z,93.70
2018-12-27T20:03:44.787Z,93.60
2018-12-27T20:06:13.096Z,93.30
2018-12-27T20:08:41.415Z,93.30
2018-12-27T20:11:09.696Z,93.40
2018-12-27T20:13:38.005Z,93.50
2018-12-27T20:16:06.279Z,93.70
2018-12-27T20:18:36.290Z,93.80
2018-12-27T20:21:04.617Z,93.60
2018-12-27T20:23:32.971Z,93.50
2018-12-27T20:26:04.248Z,93.70
2018-12-27T20:28:32.783Z,93.70
2018-12-27T20:31:01.059Z,93.70
2018-12-27T20:33:29.332Z,93.70
2018-12-27T20:35:57.634Z,93.80
2018-12-27T20:38:25.982Z,93.10
2018-12-27T20:40:54.260Z,93.10
2018-12-27T20:43:22.564Z,92.90
2018-12-27T20:45:50.840Z,92.80
2018-12-27T20:48:19.111Z,92.90
2018-12-27T20:50:47.499Z,93.00
2018-12-27T20:53:15.779Z,93.10
2018-12-27T20:55:44.051Z,93.30
2018-12-27T20:58:12.351Z,93.00
2018-12-27T21:00:40.628Z,92.80
2018-12-27T21:03:08.906Z,92.50
2018-12-27T21:05:37.284Z,92.20
2018-12-27T21:08:05.563Z,92.50
2018-12-27T21:10:33.911Z,92.10
2018-12-27T21:13:02.700Z,92.50
2018-12-27T21:15:31.395Z,92.50
2018-12-27T21:17:59.667Z,93.10
2018-12-27T21:20:28.057Z,93.10
2018-12-27T21:22:56.331Z,93.40
2018-12-27T21:25:24.727Z,93.40
2018-12-27T21:27:53.100Z,93.50
2018-12-27T21:30:21.378Z,93.60
2018-12-27T21:32:49.665Z,93.50
2018-12-27T21:35:17.961Z,93.50
2018-12-27T21:37:46.236Z,93.10
2018-12-27T21:40:14.516Z,92.90
2018-12-27T21:42:42.817Z,92.70
2018-12-27T21:45:11.169Z,92.50
2018-12-27T21:47:39.445Z,92.40
2018-12-27T21:50:07.743Z,92.70
2018-12-27T21:52:36.116Z,92.80
2018-12-27T21:55:04.442Z,92.40
2018-12-27T21:57:33.511Z,92.70
2018-12-27T22:00:01.788Z,92.50
2018-12-27T22:02:30.140Z,92.10
2018-12-27T22:04:58.444Z,92.00
2018-12-27T22:07:26.715Z,92.00
2018-12-27T22:09:54.987Z,91.80
2018-12-27T22:12:23.542Z,91.40
2018-12-27T22:14:51.820Z,91.30
2018-12-27T22:17:20.111Z,91.30
2018-12-27T22:19:49.418Z,91.30
2018-12-27T22:22:17.691Z,91.10
2018-12-27T22:24:45.963Z,91.20
2018-12-27T22:27:14.409Z,91.30
2018-12-27T22:29:42.675Z,91.30
2018-12-27T22:32:10.947Z,91.40
2018-12-27T22:34:39.352Z,91.70
2018-12-27T22:37:07.618Z,91.90
2018-12-27T22:39:37.631Z,91.70
2018-12-27T22:42:05.924Z,91.60
2018-12-27T22:44:34.191Z,92.10
2018-12-27T22:47:02.458Z,92.00
2018-12-27T22:49:30.743Z,92.00
2018-12-27T22:51:59.020Z,92.10
2018-12-27T22:54:28.255Z,92.00
2018-12-27T22:56:56.598Z,92.00
2018-12-27T22:59:24.868Z,91.60
2018-12-27T23:01:53.134Z,91.40
2018-12-27T23:04:23.923Z,91.40
2018-12-27T23:06:52.183Z,91.30
2018-12-27T23:09:20.459Z,91.10
2018-12-27T23:11:48.749Z,91.70
2018-12-27T23:14:17.047Z,91.90
2018-12-27T23:16:45.306Z,91.40
2018-12-27T23:19:13.633Z,91.60
2018-12-27T23:21:41.895Z,91.30
2018-12-27T23:24:10.243Z,91.30
2018-12-27T23:26:38.536Z,91.70
2018-12-27T23:29:06.804Z,91.80
2018-12-27T23:31:41.250Z,91.70
2018-12-27T23:34:13.143Z,91.80
2018-12-27T23:36:41.459Z,91.90
2018-12-27T23:39:09.732Z,92.20
2018-12-27T23:41:38.432Z,92.00
2018-12-27T23:44:06.758Z,92.10
2018-12-27T23:46:35.023Z,92.10
2018-12-27T23:49:03.313Z,92.10
2018-12-27T23:51:31.586Z,92.30
2018-12-27T23:54:00.112Z,92.30
2018-12-27T23:56:28.405Z,92.30
2018-12-27T23:58:56.663Z,92.30
